createdAt,value
2019-04-26T00:00:37.967Z,3.25
2019-04-26T00:03:09.363Z,3.17
2019-04-26T00:05:39.253Z,3.60
2019-04-26T00:08:09.235Z,3.40
2019-04-26T00:10:40.840Z,3.05
2019-04-26T00:13:12.395Z,3.50
2019-04-26T00:15:42.955Z,2.98
2019-04-26T00:18:13.426Z,2.90
2019-04-26T00:20:41.891Z,3.00
2019-04-26T00:23:10.783Z,3.22
2019-04-26T00:25:39.774Z,2.95
2019-04-26T00:28:08.503Z,3.90
2019-04-26T00:30:36.975Z,3.35
2019-04-26T00:33:05.425Z,3.30
2019-04-26T00:35:46.563Z,3.08
2019-04-26T00:38:04.390Z,3.62
2019-04-26T00:40:33.130Z,3.37
2019-04-26T00:43:03.491Z,3.50
2019-04-26T00:45:34.630Z,3.83
2019-04-26T00:48:04.183Z,3.60
2019-04-26T00:50:34.483Z,3.20
2019-04-26T00:53:04.038Z,3.17
2019-04-26T00:55:35.351Z,3.55
2019-04-26T00:58:05.787Z,3.37
2019-04-26T01:00:34.684Z,3.40
2019-04-26T01:03:03.474Z,4.05
2019-04-26T01:05:33.855Z,3.67
2019-04-26T01:08:02.591Z,3.87
2019-04-26T01:10:31.315Z,3.70
2019-04-26T01:12:59.759Z,3.62
2019-04-26T01:15:28.232Z,4.28
2019-04-26T01:17:56.682Z,4.15
2019-04-26T01:20:27.663Z,3.95
2019-04-26T01:22:59.551Z,3.72
2019-04-26T01:25:33.663Z,4.08
2019-04-26T01:28:05.735Z,3.87
2019-04-26T01:30:36.811Z,4.87
2019-04-26T01:33:06.803Z,3.95
2019-04-26T01:35:35.795Z,3.90
2019-04-26T01:38:08.271Z,4.53
2019-04-26T01:40:37.809Z,4.08
2019-04-26T01:43:08.054Z,3.90
2019-04-26T01:45:44.173Z,3.58
2019-04-26T01:48:46.019Z,3.90
2019-04-26T01:51:21.758Z,4.15
2019-04-26T01:53:52.135Z,4.15
2019-04-26T01:56:23.755Z,4.87
2019-04-26T01:58:52.279Z,4.80
2019-04-26T02:01:34.386Z,4.17
2019-04-26T02:04:03.131Z,4.45
2019-04-26T02:06:35.178Z,4.28
2019-04-26T02:09:04.803Z,4.50
2019-04-26T02:11:33.704Z,4.25
2019-04-26T02:14:02.499Z,4.42
2019-04-26T02:16:31.238Z,4.83
2019-04-26T02:18:59.807Z,4.50
2019-04-26T02:21:39.184Z,5.25
2019-04-26T02:24:09.635Z,4.53
2019-04-26T02:26:42.291Z,4.62
2019-04-26T02:29:13.815Z,4.83
2019-04-26T02:31:45.123Z,3.85
2019-04-26T02:34:15.436Z,4.60
2019-04-26T02:36:57.248Z,4.83
2019-04-26T02:39:20.752Z,4.55
2019-04-26T02:41:52.385Z,5.20
2019-04-26T02:44:26.645Z,5.03
2019-04-26T02:47:20.764Z,5.45
2019-04-26T02:49:53.747Z,5.03
2019-04-26T02:52:49.357Z,5.08
2019-04-26T02:55:42.398Z,4.58
2019-04-26T02:58:11.155Z,5.25
2019-04-26T03:00:40.142Z,4.90
2019-04-26T03:03:09.952Z,4.75
2019-04-26T03:05:43.305Z,5.33
2019-04-26T03:08:15.081Z,5.08
2019-04-26T03:10:46.930Z,4.30
2019-04-26T03:13:19.604Z,4.95
2019-04-26T03:16:02.507Z,5.05
2019-04-26T03:18:52.163Z,5.42
2019-04-26T03:21:47.554Z,4.30
2019-04-26T03:27:06.982Z,4.80
2019-04-26T03:30:16.302Z,4.87
2019-04-26T03:32:58.887Z,4.20
2019-04-26T03:35:55.949Z,4.83
2019-04-26T03:38:22.481Z,4.58
2019-04-26T03:40:58.471Z,5.35
2019-04-26T03:43:48.070Z,4.87
2019-04-26T03:46:31.017Z,5.00
2019-04-26T03:49:37.410Z,4.40
2019-04-26T03:52:31.774Z,5.40
2019-04-26T03:55:03.576Z,4.85
2019-04-26T03:57:54.316Z,4.70
2019-04-26T04:00:32.983Z,4.80
2019-04-26T04:03:09.389Z,4.72
2019-04-26T04:05:44.182Z,4.72
2019-04-26T04:08:15.908Z,4.30
2019-04-26T04:10:53.213Z,4.25
2019-04-26T04:13:38.968Z,4.65
2019-04-26T04:16:36.790Z,4.00
2019-04-26T04:19:15.312Z,4.87
2019-04-26T04:21:57.187Z,4.37
2019-04-26T04:24:28.741Z,4.20
2019-04-26T04:27:05.928Z,5.35
2019-04-26T04:29:49.010Z,5.22
2019-04-26T04:32:40.454Z,5.08
2019-04-26T04:35:11.706Z,5.67
2019-04-26T04:38:08.632Z,6.30
2019-04-26T04:41:12.431Z,6.80
2019-04-26T04:43:57.915Z,6.03
2019-04-26T04:46:47.452Z,6.08
2019-04-26T04:49:29.395Z,6.03
2019-04-26T04:52:13.216Z,5.70
2019-04-26T04:55:03.267Z,5.17
2019-04-26T04:57:29.979Z,5.42
2019-04-26T05:00:06.176Z,4.75
2019-04-26T05:02:46.586Z,4.90
2019-04-26T05:05:51.578Z,4.62
2019-04-26T05:08:37.396Z,5.95
2019-04-26T05:11:09.219Z,5.40
2019-04-26T05:13:47.839Z,5.62
2019-04-26T05:16:48.765Z,6.05
2019-04-26T05:19:38.739Z,5.28
2019-04-26T05:22:26.879Z,4.92
2019-04-26T05:25:14.674Z,5.15
2019-04-26T05:27:57.227Z,4.60
2019-04-26T05:30:36.428Z,5.53
2019-04-26T05:33:16.895Z,6.10
2019-04-26T05:36:09.431Z,5.30
2019-04-26T05:38:40.972Z,4.67
2019-04-26T05:41:36.643Z,4.10
2019-04-26T05:44:33.836Z,4.53
2019-04-26T05:47:28.168Z,4.65
2019-04-26T05:50:33.637Z,4.97
2019-04-26T05:53:09.664Z,5.97
2019-04-26T05:56:08.364Z,5.70
2019-04-26T05:58:45.970Z,5.05
2019-04-26T06:01:49.150Z,4.42
2019-04-26T06:04:25.484Z,4.58
2019-04-26T06:07:01.382Z,4.12
2019-04-26T06:09:54.615Z,4.08
2019-04-26T06:12:42.895Z,4.60
2019-04-26T06:15:25.092Z,11.60
2019-04-26T06:18:01.813Z,16.25
2019-04-26T06:20:42.797Z,8.43
2019-04-26T06:23:14.420Z,11.88
2019-04-26T06:25:55.630Z,13.22
2019-04-26T06:28:43.554Z,11.35
2019-04-26T06:31:15.093Z,11.08
2019-04-26T06:34:09.235Z,8.33
2019-04-26T06:36:42.403Z,8.80
2019-04-26T06:39:20.899Z,8.48
2019-04-26T06:42:18.015Z,7.58
2019-04-26T06:45:14.823Z,7.05
2019-04-26T06:47:59.576Z,7.35
2019-04-26T06:50:44.683Z,5.35
2019-04-26T06:53:22.253Z,4.45
2019-04-26T06:56:09.957Z,3.72
2019-04-26T06:59:03.457Z,3.52
2019-04-26T07:01:38.390Z,3.15
2019-04-26T07:06:56.292Z,2.98
2019-04-26T07:09:30.483Z,2.80
2019-04-26T07:12:36.855Z,2.30
2019-04-26T07:15:39.056Z,1.95
2019-04-26T07:18:34.866Z,2.37
2019-04-26T07:21:23.408Z,2.42
2019-04-26T07:24:16.559Z,2.20
2019-04-26T07:27:18.372Z,2.58
2019-04-26T07:30:12.139Z,2.62
2019-04-26T07:33:13.548Z,2.42
2019-04-26T07:36:15.298Z,2.67
2019-04-26T07:39:19.701Z,2.52
2019-04-26T07:42:16.014Z,2.77
2019-04-26T07:45:14.699Z,2.30
2019-04-26T07:47:56.843Z,2.27
2019-04-26T07:50:40.793Z,1.50
2019-04-26T07:53:30.188Z,1.67
2019-04-26T07:56:28.934Z,1.77
2019-04-26T07:59:23.271Z,2.02
2019-04-26T08:02:17.367Z,1.37
2019-04-26T08:05:05.888Z,1.60
2019-04-26T08:07:40.463Z,2.15
2019-04-26T08:10:15.034Z,1.70
2019-04-26T08:12:46.582Z,1.92
2019-04-26T08:15:34.948Z,1.62
2019-04-26T08:18:11.047Z,1.47
2019-04-26T08:20:44.217Z,1.72
2019-04-26T08:23:37.517Z,1.70
2019-04-26T08:25:49.360Z,2.00
2019-04-26T08:28:21.743Z,2.00
2019-04-26T08:30:54.403Z,1.98
2019-04-26T08:33:27.723Z,2.45
2019-04-26T08:35:58.811Z,2.00
2019-04-26T08:38:29.771Z,2.55
2019-04-26T08:41:00.467Z,2.92
2019-04-26T08:43:38.847Z,2.27
2019-04-26T08:46:26.679Z,2.65
2019-04-26T08:49:06.130Z,2.98
2019-04-26T08:51:35.035Z,2.50
2019-04-26T08:54:07.466Z,2.90
2019-04-26T08:56:40.067Z,2.80
2019-04-26T08:59:17.487Z,2.15
2019-04-26T09:01:50.439Z,2.67
2019-04-26T09:04:35.667Z,2.90
2019-04-26T09:09:40.954Z,2.60
2019-04-26T09:12:22.465Z,2.87
2019-04-26T09:14:47.324Z,2.42
2019-04-26T09:17:15.851Z,2.47
2019-04-26T09:19:44.639Z,2.92
2019-04-26T09:22:14.727Z,2.37
2019-04-26T09:24:55.126Z,2.55
2019-04-26T09:27:26.423Z,2.33
2019-04-26T09:29:56.618Z,2.72
2019-04-26T09:32:28.036Z,2.85
2019-04-26T09:34:58.641Z,2.27
2019-04-26T09:37:30.697Z,2.80
2019-04-26T09:40:09.570Z,2.90
2019-04-26T09:42:46.631Z,2.37
2019-04-26T09:45:17.207Z,2.70
2019-04-26T09:47:47.362Z,3.08
2019-04-26T09:50:34.111Z,2.60
2019-04-26T09:53:02.567Z,2.80
2019-04-26T09:55:35.414Z,2.77
2019-04-26T09:58:01.211Z,2.95
2019-04-26T10:00:31.339Z,2.50
2019-04-26T10:02:59.859Z,2.33
2019-04-26T10:05:28.331Z,2.85
2019-04-26T10:07:56.855Z,2.22
2019-04-26T10:10:27.035Z,2.83
2019-04-26T10:12:57.131Z,2.70
2019-04-26T10:15:29.979Z,3.02
2019-04-26T10:17:59.270Z,3.10
2019-04-26T10:20:27.747Z,2.60
2019-04-26T10:22:56.616Z,3.37
2019-04-26T10:25:25.166Z,3.35
2019-04-26T10:27:53.994Z,3.22
2019-04-26T10:30:22.783Z,3.50
2019-04-26T10:32:51.575Z,2.95
2019-04-26T10:35:21.685Z,2.95
2019-04-26T10:37:52.595Z,2.50
2019-04-26T10:40:20.686Z,2.17
2019-04-26T10:42:49.215Z,2.62
2019-04-26T10:45:18.713Z,3.15
2019-04-26T10:47:47.251Z,3.10
2019-04-26T10:50:16.196Z,3.52
2019-04-26T10:52:55.757Z,3.65
2019-04-26T10:55:26.030Z,3.10
2019-04-26T10:58:01.619Z,3.20
2019-04-26T11:00:34.435Z,3.30
2019-04-26T11:03:04.612Z,3.05
2019-04-26T11:05:33.829Z,2.35
2019-04-26T11:08:02.371Z,2.27
2019-04-26T11:10:31.900Z,2.17
2019-04-26T11:13:00.814Z,2.40
2019-04-26T11:15:32.522Z,2.33
2019-04-26T11:17:59.462Z,2.12
2019-04-26T11:20:27.917Z,1.87
2019-04-26T11:22:56.386Z,2.05
2019-04-26T11:25:28.237Z,1.90
2019-04-26T11:27:55.727Z,1.77
2019-04-26T11:30:24.246Z,3.05
2019-04-26T11:32:52.999Z,2.12
2019-04-26T11:35:21.451Z,1.90
2019-04-26T11:37:50.558Z,2.27
2019-04-26T11:40:20.347Z,2.10
2019-04-26T11:42:48.829Z,1.82
2019-04-26T11:45:18.002Z,2.33
2019-04-26T11:47:55.782Z,2.10
2019-04-26T11:50:17.826Z,2.10
2019-04-26T11:52:46.830Z,2.22
2019-04-26T11:55:15.818Z,2.37
2019-04-26T11:57:47.520Z,2.47
2019-04-26T12:00:16.336Z,2.52
2019-04-26T12:02:46.383Z,2.90
2019-04-26T12:05:32.483Z,2.27
2019-04-26T12:08:11.510Z,2.75
2019-04-26T12:10:40.414Z,2.75
2019-04-26T12:13:10.205Z,2.60
2019-04-26T12:15:39.156Z,2.80
2019-04-26T12:18:09.889Z,2.60
2019-04-26T12:20:39.363Z,2.55
2019-04-26T12:23:08.155Z,3.00
2019-04-26T12:25:38.897Z,2.83
2019-04-26T12:28:07.599Z,2.75
2019-04-26T12:30:36.298Z,3.25
2019-04-26T12:33:05.169Z,3.65
2019-04-26T12:35:33.964Z,3.15
2019-04-26T12:38:02.863Z,3.87
2019-04-26T12:40:31.314Z,2.92
2019-04-26T12:42:59.771Z,4.12
2019-04-26T12:45:33.127Z,3.55
2019-04-26T12:48:03.555Z,3.65
2019-04-26T12:50:36.411Z,3.08
2019-04-26T12:53:02.884Z,3.20
2019-04-26T12:55:31.691Z,3.45
2019-04-26T12:58:00.476Z,5.67
2019-04-26T13:00:32.940Z,5.45
2019-04-26T13:03:02.355Z,6.03
2019-04-26T13:05:30.826Z,4.92
2019-04-26T13:07:59.631Z,4.25
2019-04-26T13:10:48.147Z,4.30
2019-04-26T13:13:24.356Z,5.97
2019-04-26T13:16:10.707Z,4.70
2019-04-26T13:18:41.293Z,4.17
2019-04-26T13:21:09.718Z,4.50
2019-04-26T13:23:38.538Z,3.83
2019-04-26T13:26:06.991Z,4.25
2019-04-26T13:28:35.448Z,4.42
2019-04-26T13:31:04.208Z,4.42
2019-04-26T13:33:32.995Z,6.22
2019-04-26T13:36:03.282Z,5.35
2019-04-26T13:38:31.724Z,10.43
2019-04-26T13:41:04.796Z,4.20
2019-04-26T13:43:31.135Z,4.22
2019-04-26T13:46:13.949Z,3.98
2019-04-26T13:48:50.047Z,3.70
2019-04-26T13:51:22.911Z,3.92
2019-04-26T13:53:54.259Z,3.62
2019-04-26T13:56:22.323Z,3.87
2019-04-26T13:58:54.357Z,3.60
2019-04-26T14:01:21.340Z,2.60
2019-04-26T14:03:50.128Z,3.27
2019-04-26T14:06:18.921Z,4.00
2019-04-26T14:08:47.375Z,3.92
2019-04-26T14:11:15.857Z,4.08
2019-04-26T14:13:44.306Z,3.50
2019-04-26T14:16:12.779Z,4.22
2019-04-26T14:18:41.867Z,4.05
2019-04-26T14:21:10.411Z,4.10
2019-04-26T14:23:40.785Z,3.45
2019-04-26T14:26:10.899Z,3.83
2019-04-26T14:28:42.037Z,4.35
2019-04-26T14:31:12.226Z,4.60
2019-04-26T14:33:40.521Z,4.60
2019-04-26T14:36:17.697Z,4.87
2019-04-26T14:38:41.281Z,4.60
2019-04-26T14:41:13.138Z,4.97
2019-04-26T14:43:41.566Z,4.67
2019-04-26T14:46:14.050Z,5.60
2019-04-26T14:48:44.408Z,4.60
2019-04-26T14:51:12.434Z,4.62
2019-04-26T14:53:41.135Z,4.78
2019-04-26T14:56:09.923Z,4.87
2019-04-26T14:58:38.383Z,5.58
2019-04-26T15:01:28.477Z,4.42
2019-04-26T15:04:15.199Z,4.72
2019-04-26T15:06:45.311Z,4.25
2019-04-26T15:09:19.766Z,4.35
2019-04-26T15:11:53.322Z,4.15
2019-04-26T15:14:19.342Z,4.28
2019-04-26T15:16:46.074Z,4.00
2019-04-26T15:19:14.732Z,4.30
2019-04-26T15:21:43.504Z,3.55
2019-04-26T15:24:12.827Z,3.70
2019-04-26T15:26:41.807Z,3.40
2019-04-26T15:29:12.587Z,3.67
2019-04-26T15:31:41.127Z,3.33
2019-04-26T15:34:09.919Z,3.77
2019-04-26T15:36:38.388Z,4.25
2019-04-26T15:39:13.642Z,4.00
2019-04-26T15:41:47.018Z,3.80
2019-04-26T15:44:33.446Z,4.17
2019-04-26T15:47:19.603Z,3.98
2019-04-26T15:49:52.989Z,3.77
2019-04-26T15:52:21.473Z,3.85
2019-04-26T15:54:52.870Z,3.87
2019-04-26T15:57:24.423Z,3.65
2019-04-26T15:59:54.361Z,3.20
2019-04-26T16:02:23.051Z,3.17
2019-04-26T16:04:54.311Z,4.35
2019-04-26T16:07:27.801Z,3.30
2019-04-26T16:09:55.975Z,3.30
2019-04-26T16:12:25.789Z,4.12
2019-04-26T16:14:52.831Z,3.98
2019-04-26T16:17:21.625Z,4.83
2019-04-26T16:19:50.147Z,3.83
2019-04-26T16:22:18.690Z,5.50
2019-04-26T16:24:47.181Z,3.55
2019-04-26T16:27:15.755Z,4.92
2019-04-26T16:30:02.980Z,3.83
2019-04-26T16:32:43.239Z,3.35
2019-04-26T16:35:11.807Z,4.40
2019-04-26T16:37:43.648Z,4.58
2019-04-26T16:40:13.883Z,4.20
2019-04-26T16:42:42.635Z,4.12
2019-04-26T16:45:12.350Z,4.75
2019-04-26T16:47:45.212Z,4.62
2019-04-26T16:50:14.917Z,2.12
2019-04-26T16:55:17.666Z,3.02
2019-04-26T16:57:54.916Z,4.53
2019-04-26T17:00:16.324Z,4.15
2019-04-26T17:02:44.041Z,3.87
2019-04-26T17:05:20.875Z,2.37
2019-04-26T17:07:45.919Z,2.20
2019-04-26T17:09:38.413Z,3.05
2019-04-26T17:10:16.508Z,2.40
2019-04-26T17:12:46.310Z,1.72
2019-04-26T17:15:17.561Z,1.70
2019-04-26T17:17:50.170Z,1.50
2019-04-26T17:20:15.986Z,1.47
2019-04-26T17:22:59.486Z,1.60
2019-04-26T17:25:33.120Z,1.70
2019-04-26T17:28:22.953Z,0.98
2019-04-26T17:30:53.054Z,1.50
2019-04-26T17:33:22.680Z,1.32
2019-04-26T17:35:52.087Z,1.90
2019-04-26T17:38:22.419Z,1.80
2019-04-26T17:40:51.363Z,1.90
2019-04-26T17:43:21.209Z,2.12
2019-04-26T17:45:51.527Z,2.55
2019-04-26T17:48:21.188Z,2.70
2019-04-26T17:50:50.215Z,2.20
2019-04-26T17:53:28.682Z,2.52
2019-04-26T17:55:53.003Z,2.65
2019-04-26T17:58:27.480Z,3.17
2019-04-26T18:00:49.278Z,3.27
2019-04-26T18:03:18.253Z,2.85
2019-04-26T18:05:56.693Z,2.92
2019-04-26T18:08:33.687Z,3.12
2019-04-26T18:10:47.570Z,2.95
2019-04-26T18:13:17.742Z,2.95
2019-04-26T18:15:48.492Z,3.55
2019-04-26T18:18:24.133Z,3.70
2019-04-26T18:21:13.003Z,3.90
2019-04-26T18:23:40.947Z,3.70
2019-04-26T18:26:09.739Z,4.03
2019-04-26T18:28:38.185Z,3.90
2019-04-26T18:31:08.664Z,4.55
2019-04-26T18:33:37.119Z,4.35
2019-04-26T18:36:05.940Z,3.95
2019-04-26T18:38:34.634Z,4.25
2019-04-26T18:41:03.788Z,3.75
2019-04-26T18:43:32.827Z,3.60
2019-04-26T18:46:06.471Z,3.62
2019-04-26T18:48:40.275Z,4.20
2019-04-26T18:51:07.464Z,3.98
2019-04-26T18:53:39.452Z,3.60
2019-04-26T18:56:07.739Z,3.50
2019-04-26T18:58:38.062Z,3.60
2019-04-26T19:01:07.455Z,3.60
2019-04-26T19:03:35.910Z,2.85
2019-04-26T19:06:05.794Z,3.50
2019-04-26T19:08:45.561Z,3.62
2019-04-26T19:11:07.720Z,3.22
2019-04-26T19:13:37.801Z,3.72
2019-04-26T19:16:10.550Z,3.40
2019-04-26T19:18:44.927Z,2.77
2019-04-26T19:21:17.883Z,3.20
2019-04-26T19:23:46.584Z,2.95
2019-04-26T19:26:15.194Z,3.05
2019-04-26T19:28:44.603Z,2.92
2019-04-26T19:31:13.199Z,3.65
2019-04-26T19:33:42.806Z,3.30
2019-04-26T19:36:12.353Z,3.22
2019-04-26T19:38:43.709Z,3.45
2019-04-26T19:41:12.211Z,3.12
2019-04-26T19:43:43.558Z,4.08
2019-04-26T19:46:23.394Z,4.60
2019-04-26T19:49:03.448Z,4.15
2019-04-26T19:51:52.057Z,3.12
2019-04-26T19:54:27.699Z,3.27
2019-04-26T19:56:56.642Z,3.08
2019-04-26T19:59:27.580Z,3.90
2019-04-26T20:01:57.601Z,4.05
2019-04-26T20:04:30.669Z,4.37
2019-04-26T20:06:55.501Z,3.85
2019-04-26T20:09:26.349Z,4.10
2019-04-26T20:11:58.073Z,3.58
2019-04-26T20:14:39.311Z,3.20
2019-04-26T20:16:56.003Z,3.60
2019-04-26T20:19:34.383Z,3.92
2019-04-26T20:21:54.919Z,3.70
2019-04-26T20:24:23.711Z,3.45
2019-04-26T20:26:52.363Z,3.52
2019-04-26T20:29:21.459Z,4.20
2019-04-26T20:31:53.472Z,4.62
2019-04-26T20:34:22.015Z,4.65
2019-04-26T20:36:52.176Z,4.53
2019-04-26T20:39:23.973Z,5.65
2019-04-26T20:42:00.996Z,4.67
2019-04-26T20:44:28.253Z,4.33
2019-04-26T20:46:52.110Z,4.60
2019-04-26T20:49:21.808Z,5.12
2019-04-26T20:51:51.917Z,5.65
2019-04-26T20:54:22.368Z,7.22
2019-04-26T20:56:55.366Z,6.30
2019-04-26T20:59:23.415Z,6.75
2019-04-26T21:02:03.016Z,8.20
2019-04-26T21:04:36.814Z,6.15
2019-04-26T21:06:53.550Z,5.40
2019-04-26T21:09:22.549Z,5.35
2019-04-26T21:11:51.746Z,5.65
2019-04-26T21:14:21.400Z,5.80
2019-04-26T21:16:50.594Z,5.80
2019-04-26T21:19:20.255Z,6.83
2019-04-26T21:21:50.422Z,6.20
2019-04-26T21:24:23.161Z,7.83
2019-04-26T21:27:09.579Z,8.10
2019-04-26T21:29:43.536Z,6.92
2019-04-26T21:32:20.576Z,6.80
2019-04-26T21:34:50.855Z,7.45
2019-04-26T21:37:29.843Z,6.60
2019-04-26T21:40:22.631Z,7.10
2019-04-26T21:42:46.902Z,4.62
2019-04-26T21:45:15.370Z,4.05
2019-04-26T21:47:44.239Z,4.28
2019-04-26T21:50:13.601Z,5.40
2019-04-26T21:52:43.323Z,4.28
2019-04-26T21:55:12.771Z,6.17
2019-04-26T21:57:41.567Z,6.15
2019-04-26T22:00:15.347Z,7.53
2019-04-26T22:02:44.359Z,7.62
2019-04-26T22:05:14.931Z,6.25
2019-04-26T22:07:44.667Z,5.78
2019-04-26T22:10:15.334Z,6.17
2019-04-26T22:12:45.084Z,6.72
2019-04-26T22:15:15.274Z,5.20
2019-04-26T22:17:52.938Z,5.33
2019-04-26T22:20:35.758Z,5.10
2019-04-26T22:23:21.432Z,5.83
2019-04-26T22:25:51.631Z,5.72
2019-04-26T22:28:20.391Z,4.67
2019-04-26T22:30:49.183Z,4.72
2019-04-26T22:33:17.723Z,4.83
2019-04-26T22:35:46.469Z,5.15
2019-04-26T22:38:17.522Z,4.28
2019-04-26T22:40:48.546Z,5.17
2019-04-26T22:43:20.314Z,4.45
2019-04-26T22:45:53.954Z,5.25
2019-04-26T22:48:30.315Z,5.25
2019-04-26T22:50:59.593Z,5.05
2019-04-26T22:53:28.480Z,5.65
2019-04-26T22:55:57.650Z,6.12
2019-04-26T22:58:28.840Z,7.25
2019-04-26T23:00:58.573Z,6.97
2019-04-26T23:03:27.955Z,6.37
2019-04-26T23:05:56.471Z,6.10
2019-04-26T23:08:25.427Z,5.45
2019-04-26T23:10:55.863Z,5.58
2019-04-26T23:13:28.818Z,5.22
2019-04-26T23:16:11.101Z,4.90
2019-04-26T23:18:46.326Z,5.00
2019-04-26T23:21:26.343Z,6.22
2019-04-26T23:23:54.811Z,6.60
2019-04-26T23:26:23.269Z,9.03
2019-04-26T23:28:53.544Z,6.30
2019-04-26T23:31:23.606Z,6.37
2019-04-26T23:33:53.760Z,7.33
2019-04-26T23:36:24.015Z,10.05
2019-04-26T23:38:53.199Z,8.88
2019-04-26T23:41:23.634Z,8.30
2019-04-26T23:43:56.524Z,6.70
2019-04-26T23:46:25.987Z,5.70
2019-04-26T23:48:53.852Z,6.55
2019-04-26T23:51:23.801Z,6.47
2019-04-26T23:53:56.637Z,5.58
2019-04-26T23:56:25.334Z,6.45
2019-04-26T23:58:53.245Z,6.67
